createdAt,value
2019-05-03T00:01:44.948Z,96.70
2019-05-03T00:04:16.321Z,96.60
2019-05-03T00:06:47.909Z,96.70
2019-05-03T00:09:19.672Z,96.90
2019-05-03T00:11:52.708Z,96.90
2019-05-03T00:14:23.171Z,97.10
2019-05-03T00:16:53.945Z,96.90
2019-05-03T00:19:24.552Z,97.00
2019-05-03T00:21:55.886Z,96.90
2019-05-03T00:24:26.570Z,96.80
2019-05-03T00:26:57.324Z,96.90
2019-05-03T00:29:28.519Z,96.30
2019-05-03T00:31:59.231Z,96.30
2019-05-03T00:34:34.811Z,96.10
2019-05-03T00:37:08.747Z,96.10
2019-05-03T00:39:52.290Z,96.20
2019-05-03T00:42:22.638Z,96.10
2019-05-03T00:44:53.369Z,96.20
2019-05-03T00:47:24.070Z,96.20
2019-05-03T00:49:57.629Z,96.20
2019-05-03T00:52:28.363Z,96.10
2019-05-03T00:54:59.075Z,96.10
2019-05-03T00:57:32.336Z,96.00
2019-05-03T01:00:03.374Z,95.90
2019-05-03T01:02:35.068Z,95.80
2019-05-03T01:05:06.284Z,96.00
2019-05-03T01:07:38.074Z,96.00
2019-05-03T01:10:11.730Z,96.00
2019-05-03T01:12:42.813Z,95.90
2019-05-03T01:15:22.229Z,95.60
2019-05-03T01:17:52.913Z,95.30
2019-05-03T01:20:23.632Z,95.20
2019-05-03T01:22:54.482Z,95.00
2019-05-03T01:25:32.124Z,94.60
2019-05-03T01:27:57.748Z,94.10
2019-05-03T01:30:28.400Z,93.90
2019-05-03T01:32:59.147Z,93.80
2019-05-03T01:35:29.811Z,93.80
2019-05-03T01:38:02.045Z,93.30
2019-05-03T01:40:33.200Z,92.90
2019-05-03T01:43:04.026Z,92.50
2019-05-03T01:45:34.912Z,92.10
2019-05-03T01:48:22.514Z,91.20
2019-05-03T01:51:11.814Z,91.00
2019-05-03T01:53:42.757Z,90.70
2019-05-03T01:56:13.653Z,90.70
2019-05-03T01:58:44.428Z,91.00
2019-05-03T02:01:43.149Z,91.40
2019-05-03T02:04:21.545Z,91.40
2019-05-03T02:06:52.074Z,91.50
2019-05-03T02:09:22.933Z,91.30
2019-05-03T02:11:54.009Z,91.50
2019-05-03T02:14:24.892Z,91.50
2019-05-03T02:16:55.735Z,91.30
2019-05-03T02:19:26.567Z,91.30
2019-05-03T02:21:57.365Z,91.40
2019-05-03T02:24:28.287Z,91.10
2019-05-03T02:26:59.159Z,91.10
2019-05-03T02:29:29.762Z,90.70
2019-05-03T02:32:03.117Z,90.60
2019-05-03T02:34:33.343Z,90.50
2019-05-03T02:37:04.255Z,90.50
2019-05-03T02:39:34.930Z,90.20
2019-05-03T02:42:10.850Z,90.00
2019-05-03T02:44:39.410Z,89.90
2019-05-03T02:47:31.934Z,90.00
2019-05-03T02:50:07.138Z,90.00
2019-05-03T02:52:38.149Z,90.10
2019-05-03T02:55:11.971Z,90.10
2019-05-03T02:57:46.268Z,90.30
2019-05-03T03:00:17.063Z,90.40
2019-05-03T03:02:47.889Z,90.50
2019-05-03T03:05:30.706Z,90.80
2019-05-03T03:08:05.932Z,90.80
2019-05-03T03:10:36.622Z,91.00
2019-05-03T03:13:08.704Z,91.10
2019-05-03T03:15:45.684Z,90.80
2019-05-03T03:18:17.269Z,90.60
2019-05-03T03:20:50.804Z,90.50
2019-05-03T03:23:26.298Z,90.40
2019-05-03T03:25:58.768Z,90.40
2019-05-03T03:28:31.633Z,90.40
2019-05-03T03:31:30.438Z,90.20
2019-05-03T03:34:08.377Z,90.00
2019-05-03T03:36:58.891Z,88.60
2019-05-03T03:39:17.831Z,87.20
2019-05-03T03:41:48.909Z,86.50
2019-05-03T03:44:21.457Z,86.90
2019-05-03T03:46:52.421Z,87.00
2019-05-03T03:49:26.036Z,83.50
2019-05-03T03:51:57.887Z,80.30
2019-05-03T03:54:31.636Z,78.60
2019-05-03T03:57:07.841Z,76.60
2019-05-03T03:59:37.328Z,76.60
2019-05-03T04:02:08.176Z,77.80
2019-05-03T04:04:50.262Z,74.10
2019-05-03T04:07:21.644Z,73.70
2019-05-03T04:09:52.827Z,72.60
2019-05-03T04:12:26.484Z,68.40
2019-05-03T04:15:05.469Z,68.90
2019-05-03T04:17:57.062Z,71.50
2019-05-03T04:20:35.824Z,74.60
2019-05-03T04:23:06.336Z,76.30
2019-05-03T04:25:37.331Z,79.30
2019-05-03T04:28:08.608Z,80.50
2019-05-03T04:30:39.228Z,77.10
2019-05-03T04:33:10.058Z,77.80
2019-05-03T04:35:40.774Z,78.30
2019-05-03T04:38:11.515Z,78.50
2019-05-03T04:40:45.123Z,78.30
2019-05-03T04:43:16.487Z,78.10
2019-05-03T04:46:02.171Z,77.50
2019-05-03T04:48:35.579Z,78.90
2019-05-03T04:51:06.121Z,78.30
2019-05-03T04:53:38.930Z,78.90
2019-05-03T04:56:10.103Z,78.40
2019-05-03T04:58:42.211Z,79.00
2019-05-03T05:01:15.746Z,79.50
2019-05-03T05:03:46.146Z,79.30
2019-05-03T05:06:17.313Z,79.10
2019-05-03T05:08:48.230Z,79.40
2019-05-03T05:11:19.186Z,79.00
2019-05-03T05:13:50.330Z,79.00
2019-05-03T05:16:21.399Z,80.00
2019-05-03T05:18:56.588Z,80.40
2019-05-03T05:21:32.164Z,81.20
2019-05-03T05:24:05.523Z,82.10
2019-05-03T05:26:58.687Z,81.50
2019-05-03T05:29:31.428Z,82.70
2019-05-03T05:32:02.313Z,82.30
2019-05-03T05:34:34.922Z,82.40
2019-05-03T05:37:06.204Z,82.10
2019-05-03T05:39:37.314Z,82.60
2019-05-03T05:42:08.383Z,84.70
2019-05-03T05:44:39.710Z,86.40
2019-05-03T05:47:20.954Z,85.90
2019-05-03T05:49:58.571Z,81.60
2019-05-03T05:52:29.528Z,80.00
2019-05-03T05:55:27.263Z,78.80
2019-05-03T05:58:25.452Z,78.40
2019-05-03T06:00:58.972Z,77.90
2019-05-03T06:03:31.055Z,77.10
2019-05-03T06:06:05.365Z,76.10
2019-05-03T06:09:01.440Z,76.10
2019-05-03T06:11:42.444Z,75.40
2019-05-03T06:14:20.709Z,76.00
2019-05-03T06:17:02.266Z,74.70
2019-05-03T06:19:54.974Z,73.50
2019-05-03T06:22:39.067Z,72.30
2019-05-03T06:25:29.255Z,70.30
2019-05-03T06:28:01.622Z,69.50
2019-05-03T06:31:00.906Z,70.70
2019-05-03T06:33:31.899Z,71.60
2019-05-03T06:36:04.829Z,70.80
2019-05-03T06:38:35.500Z,63.80
2019-05-03T06:41:06.546Z,60.50
2019-05-03T06:43:39.508Z,61.60
2019-05-03T06:46:10.364Z,63.40
2019-05-03T06:48:41.497Z,67.30
2019-05-03T06:51:19.268Z,67.40
2019-05-03T06:53:47.566Z,67.00
2019-05-03T06:56:19.267Z,65.40
2019-05-03T06:58:50.595Z,61.10
2019-05-03T07:01:28.145Z,62.60
2019-05-03T07:04:05.121Z,66.40
2019-05-03T07:06:47.963Z,68.50
2019-05-03T07:09:37.824Z,70.70
2019-05-03T07:12:08.936Z,70.10
2019-05-03T07:14:39.963Z,69.50
2019-05-03T07:17:10.896Z,69.00
2019-05-03T07:19:41.932Z,74.50
2019-05-03T07:22:15.121Z,75.10
2019-05-03T07:24:45.634Z,77.40
2019-05-03T07:27:16.858Z,81.00
2019-05-03T07:29:47.726Z,82.90
2019-05-03T07:32:18.814Z,83.40
2019-05-03T07:34:49.605Z,82.30
2019-05-03T07:37:20.690Z,81.20
2019-05-03T07:39:51.553Z,79.50
2019-05-03T07:42:22.773Z,77.40
2019-05-03T07:44:55.805Z,74.20
2019-05-03T07:47:27.879Z,73.60
2019-05-03T07:49:58.973Z,72.00
2019-05-03T07:52:30.029Z,72.70
2019-05-03T07:55:01.263Z,71.80
2019-05-03T07:57:55.463Z,70.20
2019-05-03T08:00:27.459Z,71.60
2019-05-03T08:02:58.556Z,73.30
2019-05-03T08:05:29.604Z,77.00
2019-05-03T08:08:00.640Z,79.80
2019-05-03T08:10:31.286Z,81.00
2019-05-03T08:13:04.510Z,81.30
2019-05-03T08:15:34.903Z,81.90
2019-05-03T08:18:05.903Z,82.00
2019-05-03T08:20:36.962Z,78.40
2019-05-03T08:23:08.136Z,70.00
2019-05-03T08:25:39.148Z,69.20
2019-05-03T08:28:09.834Z,68.30
2019-05-03T08:30:54.794Z,69.10
2019-05-03T08:33:44.817Z,69.40
2019-05-03T08:36:16.073Z,69.40
2019-05-03T08:38:46.662Z,67.10
2019-05-03T08:41:19.731Z,64.10
2019-05-03T08:43:50.936Z,60.30
2019-05-03T08:46:21.956Z,56.90
2019-05-03T08:48:56.792Z,56.70
2019-05-03T08:51:27.856Z,54.50
2019-05-03T08:53:58.538Z,55.30
2019-05-03T08:56:29.678Z,58.90
2019-05-03T08:59:00.713Z,60.20
2019-05-03T09:01:31.854Z,61.50
2019-05-03T09:04:04.820Z,62.90
2019-05-03T09:06:35.809Z,63.20
2019-05-03T09:09:09.852Z,62.80
2019-05-03T09:11:40.797Z,61.90
2019-05-03T09:14:14.931Z,62.10
2019-05-03T09:16:46.004Z,61.70
2019-05-03T09:19:17.265Z,60.50
2019-05-03T09:21:48.257Z,61.40
2019-05-03T09:24:19.406Z,61.70
2019-05-03T09:26:50.639Z,61.10
2019-05-03T09:31:52.312Z,60.50
2019-05-03T09:34:25.732Z,57.80
2019-05-03T09:36:56.588Z,57.80
2019-05-03T09:39:27.645Z,62.40
2019-05-03T09:41:58.774Z,67.00
2019-05-03T09:44:29.881Z,68.50
2019-05-03T09:47:01.073Z,71.30
2019-05-03T09:49:32.125Z,73.00
2019-05-03T09:54:40.564Z,71.20
2019-05-03T09:57:11.864Z,71.20
2019-05-03T10:02:15.258Z,71.40
2019-05-03T10:04:46.529Z,68.60
2019-05-03T10:07:17.648Z,68.10
2019-05-03T10:20:18.898Z,64.20
2019-05-03T10:22:49.986Z,59.50
2019-05-03T10:25:21.162Z,61.40
2019-05-03T10:27:51.878Z,59.80
2019-05-03T10:30:27.421Z,61.80
2019-05-03T10:33:05.972Z,64.20
2019-05-03T10:35:37.033Z,66.40
2019-05-03T10:38:07.976Z,66.80
2019-05-03T10:40:38.736Z,63.90
2019-05-03T10:43:10.728Z,59.90
2019-05-03T10:45:42.025Z,60.40
2019-05-03T10:48:15.289Z,63.70
2019-05-03T10:50:45.884Z,64.40
2019-05-03T10:53:22.802Z,62.20
2019-05-03T10:56:13.456Z,61.30
2019-05-03T10:58:45.893Z,61.20
2019-05-03T11:01:18.991Z,62.30
2019-05-03T11:03:49.706Z,60.80
2019-05-03T11:06:20.419Z,60.80
2019-05-03T11:08:54.532Z,61.40
2019-05-03T11:11:25.990Z,60.40
2019-05-03T11:13:57.042Z,61.90
2019-05-03T11:16:29.239Z,62.20
2019-05-03T11:19:01.648Z,60.50
2019-05-03T11:21:34.593Z,56.80
2019-05-03T11:24:06.118Z,57.50
2019-05-03T11:26:39.427Z,57.80
2019-05-03T11:29:10.494Z,58.80
2019-05-03T11:31:58.765Z,61.10
2019-05-03T11:34:35.480Z,59.00
2019-05-03T11:37:34.727Z,59.60
2019-05-03T11:40:06.320Z,59.50
2019-05-03T11:42:37.326Z,59.10
2019-05-03T11:45:09.767Z,59.50
2019-05-03T11:47:40.834Z,59.70
2019-05-03T11:50:14.672Z,60.20
2019-05-03T11:52:47.243Z,63.50
2019-05-03T11:55:17.783Z,66.00
2019-05-03T11:57:48.908Z,64.70
2019-05-03T12:00:26.799Z,64.10
2019-05-03T12:03:15.613Z,67.50
2019-05-03T12:05:49.716Z,65.50
2019-05-03T12:08:20.668Z,63.50
2019-05-03T12:10:58.639Z,61.40
2019-05-03T12:13:29.161Z,63.30
2019-05-03T12:16:00.948Z,65.40
2019-05-03T12:18:47.880Z,67.70
2019-05-03T12:21:08.258Z,65.40
2019-05-03T12:23:38.997Z,63.80
2019-05-03T12:26:13.432Z,63.80
2019-05-03T12:28:44.994Z,64.40
2019-05-03T12:31:29.402Z,64.70
2019-05-03T12:33:48.360Z,60.60
2019-05-03T12:36:19.452Z,61.00
2019-05-03T12:38:50.197Z,60.10
2019-05-03T12:41:22.398Z,61.20
2019-05-03T12:43:55.018Z,63.50
2019-05-03T12:46:26.185Z,63.20
2019-05-03T12:48:57.174Z,65.40
2019-05-03T12:51:28.391Z,66.60
2019-05-03T12:54:00.641Z,65.00
2019-05-03T12:56:32.931Z,63.90
2019-05-03T12:59:20.083Z,61.20
2019-05-03T13:02:15.511Z,62.30
2019-05-03T13:04:47.669Z,63.90
2019-05-03T13:07:40.252Z,63.40
2019-05-03T13:10:11.429Z,60.30
2019-05-03T13:12:50.711Z,62.60
2019-05-03T13:15:15.845Z,66.60
2019-05-03T13:17:46.493Z,66.70
2019-05-03T13:20:17.424Z,64.80
2019-05-03T13:22:48.444Z,65.90
2019-05-03T13:25:19.396Z,66.60
2019-05-03T13:27:50.324Z,67.70
2019-05-03T13:30:21.442Z,68.30
2019-05-03T13:32:54.909Z,69.20
2019-05-03T13:35:25.669Z,69.50
2019-05-03T13:37:56.865Z,69.80
2019-05-03T13:40:27.814Z,70.00
2019-05-03T13:43:03.534Z,69.50
2019-05-03T13:45:31.221Z,70.30
2019-05-03T13:48:04.975Z,71.60
2019-05-03T13:50:35.266Z,71.60
2019-05-03T13:53:06.395Z,73.40
2019-05-03T13:55:37.096Z,74.10
2019-05-03T13:58:08.362Z,73.60
2019-05-03T14:00:39.485Z,73.50
2019-05-03T14:03:10.550Z,76.00
2019-05-03T14:05:41.627Z,76.20
2019-05-03T14:08:12.202Z,75.50
2019-05-03T14:10:45.572Z,75.00
2019-05-03T14:13:16.058Z,73.60
2019-05-03T14:15:46.764Z,73.70
2019-05-03T14:18:17.857Z,72.40
2019-05-03T14:21:10.762Z,72.30
2019-05-03T14:24:00.038Z,71.10
2019-05-03T14:26:31.015Z,70.10
2019-05-03T14:29:01.897Z,70.90
2019-05-03T14:31:34.622Z,71.50
2019-05-03T14:34:06.197Z,70.70
2019-05-03T14:36:37.897Z,70.50
2019-05-03T14:39:10.384Z,69.00
2019-05-03T14:41:41.569Z,68.20
2019-05-03T14:44:14.900Z,67.90
2019-05-03T14:46:45.880Z,68.40
2019-05-03T14:49:17.466Z,67.30
2019-05-03T14:51:48.145Z,68.00
2019-05-03T14:54:20.293Z,65.90
2019-05-03T14:57:08.263Z,65.40
2019-05-03T15:00:16.834Z,66.10
2019-05-03T15:02:51.218Z,64.50
2019-05-03T15:05:22.470Z,65.30
2019-05-03T15:07:55.871Z,67.00
2019-05-03T15:10:26.194Z,67.60
2019-05-03T15:12:57.015Z,69.60
2019-05-03T15:15:28.939Z,70.30
2019-05-03T15:18:00.112Z,70.70
2019-05-03T15:20:30.802Z,70.70
2019-05-03T15:23:02.538Z,70.70
2019-05-03T15:25:34.590Z,70.70
2019-05-03T15:28:05.942Z,70.90
2019-05-03T15:30:36.641Z,72.70
2019-05-03T15:33:08.543Z,72.90
2019-05-03T15:35:39.295Z,72.70
2019-05-03T15:38:10.040Z,72.50
2019-05-03T15:40:40.685Z,72.30
2019-05-03T15:43:20.733Z,72.70
2019-05-03T15:46:01.884Z,72.30
2019-05-03T15:48:37.877Z,74.00
2019-05-03T15:51:08.534Z,75.50
2019-05-03T15:53:39.209Z,75.40
2019-05-03T15:56:09.863Z,76.00
2019-05-03T15:58:40.559Z,76.30
2019-05-03T16:01:11.221Z,76.20
2019-05-03T16:03:41.878Z,76.50
2019-05-03T16:06:12.988Z,77.00
2019-05-03T16:08:44.595Z,79.70
2019-05-03T16:11:15.317Z,80.70
2019-05-03T16:13:46.586Z,79.90
2019-05-03T16:16:17.472Z,80.80
2019-05-03T16:18:48.192Z,80.50
2019-05-03T16:21:19.044Z,79.60
2019-05-03T16:23:49.713Z,79.00
2019-05-03T16:26:20.984Z,81.70
2019-05-03T16:28:57.101Z,80.50
2019-05-03T16:31:27.766Z,81.90
2019-05-03T16:33:58.505Z,81.20
2019-05-03T16:36:29.525Z,81.70
2019-05-03T16:39:00.841Z,82.20
2019-05-03T16:41:40.278Z,82.20
2019-05-03T16:44:14.636Z,83.70
2019-05-03T16:46:51.644Z,82.50
2019-05-03T16:49:24.567Z,81.70
2019-05-03T16:51:57.326Z,82.50
2019-05-03T16:54:28.981Z,83.10
2019-05-03T16:56:59.852Z,83.50
2019-05-03T16:59:30.572Z,84.30
2019-05-03T17:02:01.308Z,83.10
2019-05-03T17:04:46.479Z,83.50
2019-05-03T17:07:41.989Z,83.00
2019-05-03T17:10:21.189Z,83.40
2019-05-03T17:12:51.857Z,83.20
2019-05-03T17:15:25.009Z,82.00
2019-05-03T17:17:55.965Z,82.20
2019-05-03T17:20:26.737Z,83.20
2019-05-03T17:22:57.482Z,84.70
2019-05-03T17:25:29.754Z,86.30
2019-05-03T17:28:00.544Z,86.60
2019-05-03T17:30:35.123Z,85.40
2019-05-03T17:33:05.813Z,86.20
2019-05-03T17:35:37.198Z,86.60
2019-05-03T17:38:07.869Z,86.10
2019-05-03T17:40:48.402Z,85.70
2019-05-03T17:43:38.462Z,85.40
2019-05-03T17:46:09.542Z,85.70
2019-05-03T17:48:40.616Z,85.10
2019-05-03T17:51:14.942Z,85.70
2019-05-03T17:54:01.382Z,86.30
2019-05-03T17:56:55.216Z,86.60
2019-05-03T17:59:45.132Z,86.90
2019-05-03T18:02:27.779Z,88.20
2019-05-03T18:05:17.871Z,89.20
2019-05-03T18:08:13.533Z,90.20
2019-05-03T18:10:49.431Z,90.50
2019-05-03T18:13:24.758Z,90.30
2019-05-03T18:15:57.828Z,90.50
2019-05-03T18:18:30.096Z,90.60
2019-05-03T18:21:00.933Z,90.80
2019-05-03T18:23:31.666Z,90.90
2019-05-03T18:26:02.354Z,91.00
2019-05-03T18:28:33.137Z,90.70
2019-05-03T18:31:05.429Z,90.50
2019-05-03T18:33:36.312Z,90.10
2019-05-03T18:36:07.018Z,90.20
2019-05-03T18:38:40.493Z,90.10
2019-05-03T18:41:13.993Z,90.50
2019-05-03T18:43:54.798Z,90.50
2019-05-03T18:46:28.433Z,90.60
2019-05-03T18:48:59.565Z,90.60
2019-05-03T18:51:30.322Z,90.80
2019-05-03T18:54:01.343Z,90.70
2019-05-03T20:02:56.519Z,92.00
2019-05-03T20:05:52.313Z,92.10
2019-05-03T20:08:26.825Z,92.10
2019-05-03T20:11:15.197Z,92.00
2019-05-03T20:13:47.021Z,92.20
2019-05-03T20:16:17.745Z,92.10
2019-05-03T20:18:48.422Z,92.30
2019-05-03T20:21:20.209Z,92.10
2019-05-03T20:23:50.864Z,91.90
2019-05-03T20:26:21.716Z,91.90
2019-05-03T20:28:52.481Z,92.00
2019-05-03T20:31:24.961Z,92.00
2019-05-03T20:33:55.817Z,92.00
2019-05-03T20:36:26.628Z,92.10
2019-05-03T20:38:59.937Z,92.10
2019-05-03T20:41:30.725Z,91.90
2019-05-03T20:44:15.285Z,91.80
2019-05-03T20:47:09.483Z,91.80
2019-05-03T20:49:40.733Z,92.00
2019-05-03T20:52:11.885Z,92.00
2019-05-03T20:54:45.264Z,92.00
2019-05-03T20:57:15.949Z,92.10
2019-05-03T20:59:50.371Z,92.00
2019-05-03T21:02:18.970Z,92.10
2019-05-03T21:04:49.720Z,92.40
2019-05-03T21:07:21.553Z,92.40
2019-05-03T21:09:52.255Z,92.50
2019-05-03T21:12:22.852Z,92.80
2019-05-03T21:14:55.587Z,92.60
2019-05-03T21:17:44.997Z,92.70
2019-05-03T21:20:34.819Z,92.60
2019-05-03T21:23:08.481Z,92.50
2019-05-03T21:26:05.702Z,92.70
2019-05-03T21:28:17.485Z,92.90
2019-05-03T21:30:50.254Z,92.90
2019-05-03T21:33:20.917Z,92.90
2019-05-03T21:35:51.657Z,93.20
2019-05-03T21:38:22.306Z,93.20
2019-05-03T21:40:54.649Z,93.10
2019-05-03T21:43:25.725Z,93.00
2019-05-03T21:46:04.491Z,92.70
2019-05-03T21:48:55.253Z,92.90
2019-05-03T21:51:25.642Z,92.90
2019-05-03T21:53:57.889Z,92.80
2019-05-03T21:56:28.658Z,92.80
2019-05-03T21:58:59.412Z,92.80
2019-05-03T22:01:30.109Z,93.00
2019-05-03T22:04:00.772Z,92.90
2019-05-03T22:06:31.465Z,93.00
2019-05-03T22:09:02.185Z,93.10
2019-05-03T22:11:34.407Z,93.00
2019-05-03T22:14:08.250Z,92.90
2019-05-03T22:17:10.039Z,93.00
2019-05-03T22:19:41.628Z,93.10
2019-05-03T22:22:29.844Z,93.30
2019-05-03T22:25:01.343Z,93.40
2019-05-03T22:27:38.139Z,93.50
2019-05-03T22:30:09.124Z,93.70
2019-05-03T22:32:39.776Z,93.70
2019-05-03T22:35:10.525Z,93.70
2019-05-03T22:37:41.258Z,93.60
2019-05-03T22:40:14.485Z,93.50
2019-05-03T22:42:45.091Z,93.60
2019-05-03T22:45:16.154Z,93.60
2019-05-03T22:47:46.901Z,93.60
2019-05-03T22:50:17.901Z,93.80
2019-05-03T22:52:49.086Z,94.00
2019-05-03T22:55:19.988Z,94.20
2019-05-03T22:57:50.844Z,94.00
2019-05-03T23:00:22.084Z,94.00
2019-05-03T23:02:54.772Z,93.70
2019-05-03T23:05:27.884Z,93.50
2019-05-03T23:07:58.698Z,93.70
2019-05-03T23:10:30.040Z,93.70
2019-05-03T23:13:01.350Z,93.80
2019-05-03T23:15:32.441Z,94.00
2019-05-03T23:18:04.948Z,94.20
2019-05-03T23:20:45.398Z,94.40
2019-05-03T23:23:35.732Z,94.40
2019-05-03T23:26:07.032Z,94.50
2019-05-03T23:28:38.195Z,94.40
2019-05-03T23:31:09.462Z,94.60
2019-05-03T23:33:40.806Z,94.70
2019-05-03T23:36:11.449Z,94.90
2019-05-03T23:38:42.468Z,94.70
2019-05-03T23:41:15.117Z,94.70
2019-05-03T23:43:45.333Z,94.40
2019-05-03T23:46:17.609Z,94.30
2019-05-03T23:48:48.577Z,94.30
2019-05-03T23:51:37.584Z,94.20
2019-05-03T23:54:08.262Z,94.00
2019-05-03T23:56:39.023Z,94.00
2019-05-03T23:59:09.622Z,93.60
